createdAt,value
2023-05-01T00:01:37.574Z,10.31
2023-05-01T00:04:40.801Z,10.25
2023-05-01T00:07:43.285Z,10.11
2023-05-01T00:10:46.949Z,10.09
2023-05-01T00:13:49.878Z,10.08
2023-05-01T00:17:04.051Z,10.08
2023-05-01T00:20:08.968Z,10.04
2023-05-01T00:23:12.480Z,10.03
2023-05-01T00:26:14.927Z,9.98
2023-05-01T00:29:19.371Z,9.95
2023-05-01T00:32:22.259Z,9.80
2023-05-01T00:35:25.370Z,9.66
2023-05-01T00:38:30.004Z,9.53
2023-05-01T00:41:33.847Z,9.42
2023-05-01T00:44:38.223Z,9.42
2023-05-01T00:47:41.514Z,9.44
2023-05-01T00:50:46.071Z,9.29
2023-05-01T00:53:49.714Z,9.26
2023-05-01T00:56:52.722Z,9.13
2023-05-01T00:59:55.890Z,9.19
2023-05-01T01:02:58.876Z,9.19
2023-05-01T01:06:08.437Z,9.26
2023-05-01T01:09:31.887Z,9.30
2023-05-01T01:12:53.974Z,9.34
2023-05-01T01:16:05.948Z,9.25
2023-05-01T01:19:21.168Z,9.27
2023-05-01T01:22:26.612Z,9.21
2023-05-01T01:25:49.174Z,9.16
2023-05-01T01:29:16.283Z,9.14
2023-05-01T01:32:35.944Z,9.15
2023-05-01T01:35:46.952Z,9.18
2023-05-01T01:39:07.772Z,9.25
2023-05-01T01:42:15.998Z,9.36
2023-05-01T01:45:24.077Z,9.41
2023-05-01T01:48:32.151Z,9.43
2023-05-01T01:51:37.924Z,9.52
2023-05-01T01:54:45.204Z,9.53
2023-05-01T01:57:50.539Z,9.60
2023-05-01T02:00:57.115Z,9.57
2023-05-01T02:04:01.321Z,9.51
2023-05-01T02:07:06.168Z,9.46
2023-05-01T02:10:13.868Z,9.43
2023-05-01T02:13:18.276Z,9.35
2023-05-01T02:16:25.411Z,9.28
2023-05-01T02:19:28.853Z,9.22
2023-05-01T02:22:34.111Z,9.21
2023-05-01T02:25:39.550Z,9.22
2023-05-01T02:28:42.629Z,9.21
2023-05-01T02:31:46.276Z,9.20
2023-05-01T02:34:49.505Z,9.03
2023-05-01T02:37:53.497Z,8.86
2023-05-01T02:40:58.104Z,8.78
2023-05-01T02:44:06.667Z,8.74
2023-05-01T02:47:14.143Z,8.69
2023-05-01T02:50:18.514Z,8.59
2023-05-01T02:53:22.820Z,8.57
2023-05-01T02:56:29.512Z,8.55
2023-05-01T02:59:33.448Z,8.58
2023-05-01T03:02:36.636Z,8.67
2023-05-01T03:05:41.718Z,8.71
2023-05-01T03:08:45.293Z,8.69
2023-05-01T03:11:48.703Z,8.73
2023-05-01T03:14:51.510Z,8.75
2023-05-01T03:17:55.377Z,8.79
2023-05-01T03:21:00.420Z,8.73
2023-05-01T03:24:03.706Z,8.75
2023-05-01T03:27:07.971Z,8.76
2023-05-01T03:30:11.695Z,8.75
2023-05-01T03:33:16.362Z,8.73
2023-05-01T03:36:19.415Z,8.65
2023-05-01T03:39:24.080Z,8.67
2023-05-01T03:42:40.518Z,8.66
2023-05-01T03:45:44.885Z,8.70
2023-05-01T03:48:48.173Z,8.75
2023-05-01T03:51:51.368Z,8.66
2023-05-01T03:54:55.249Z,8.70
2023-05-01T03:57:59.470Z,8.77
2023-05-01T04:01:03.961Z,8.86
2023-05-01T04:04:08.968Z,9.06
2023-05-01T04:07:17.290Z,9.17
2023-05-01T04:10:22.638Z,9.32
2023-05-01T04:13:26.529Z,9.49
2023-05-01T04:16:31.130Z,9.66
2023-05-01T04:19:35.988Z,9.77
2023-05-01T04:22:39.427Z,9.93
2023-05-01T04:25:44.686Z,10.04
2023-05-01T04:28:53.591Z,10.16
2023-05-01T04:31:57.551Z,10.35
2023-05-01T04:35:00.625Z,10.45
2023-05-01T04:38:03.992Z,10.73
2023-05-01T04:41:07.481Z,10.88
2023-05-01T04:44:11.263Z,11.05
2023-05-01T04:47:15.163Z,11.25
2023-05-01T04:50:18.193Z,11.17
2023-05-01T04:53:22.944Z,11.36
2023-05-01T04:56:26.884Z,11.55
2023-05-01T04:59:30.441Z,11.68
2023-05-01T05:02:38.116Z,11.67
2023-05-01T05:05:42.609Z,11.77
2023-05-01T05:08:52.146Z,12.04
2023-05-01T05:11:58.539Z,11.86
2023-05-01T05:15:04.103Z,12.06
2023-05-01T05:18:07.382Z,11.95
2023-05-01T05:21:12.656Z,12.19
2023-05-01T05:24:21.261Z,12.33
2023-05-01T05:27:29.183Z,12.26
2023-05-01T05:30:37.921Z,12.61
2023-05-01T05:33:44.965Z,12.53
2023-05-01T05:36:51.649Z,12.82
2023-05-01T05:39:57.078Z,13.11
2023-05-01T05:43:01.311Z,13.54
2023-05-01T05:46:07.017Z,14.73
2023-05-01T05:49:14.955Z,14.69
2023-05-01T05:52:26.336Z,14.95
2023-05-01T05:55:30.642Z,15.43
2023-05-01T05:58:40.984Z,16.66
2023-05-01T06:01:51.825Z,16.85
2023-05-01T06:04:56.922Z,16.25
2023-05-01T06:08:10.598Z,16.68
2023-05-01T06:11:16.993Z,16.63
2023-05-01T06:14:27.844Z,16.45
2023-05-01T06:17:42.879Z,16.40
2023-05-01T06:20:48.079Z,16.06
2023-05-01T06:23:54.982Z,16.41
2023-05-01T06:27:01.367Z,16.63
2023-05-01T06:30:08.005Z,16.32
2023-05-01T06:33:13.646Z,16.51
2023-05-01T06:36:19.973Z,16.40
2023-05-01T06:39:28.996Z,16.49
2023-05-01T06:42:34.907Z,16.60
2023-05-01T06:45:42.007Z,16.43
2023-05-01T06:48:46.912Z,16.86
2023-05-01T06:51:55.917Z,17.32
2023-05-01T06:55:13.963Z,17.02
2023-05-01T07:01:27.315Z,16.60
2023-05-01T07:04:38.871Z,17.19
2023-05-01T07:08:00.742Z,17.18
2023-05-01T07:11:09.214Z,16.79
2023-05-01T07:14:14.441Z,17.34
2023-05-01T07:17:19.105Z,17.32
2023-05-01T07:20:32.955Z,17.61
2023-05-01T07:23:46.842Z,17.35
2023-05-01T07:26:51.017Z,17.51
2023-05-01T07:29:59.990Z,17.28
2023-05-01T07:33:10.807Z,16.86
2023-05-01T07:36:16.956Z,16.96
2023-05-01T07:39:22.990Z,16.84
2023-05-01T07:42:42.101Z,17.14
2023-05-01T07:46:02.040Z,17.61
2023-05-01T07:49:12.096Z,17.69
2023-05-01T07:52:29.181Z,17.63
2023-05-01T07:55:42.134Z,17.97
2023-05-01T07:59:02.522Z,17.90
2023-05-01T08:02:14.181Z,17.88
2023-05-01T08:05:22.052Z,18.22
2023-05-01T08:08:31.565Z,18.79
2023-05-01T08:11:37.019Z,18.62
2023-05-01T08:14:40.700Z,18.29
2023-05-01T08:17:47.106Z,18.29
2023-05-01T08:21:06.888Z,18.25
2023-05-01T08:24:12.636Z,18.50
2023-05-01T08:27:22.937Z,17.64
2023-05-01T08:30:40.963Z,18.47
2023-05-01T08:33:52.159Z,18.90
2023-05-01T08:37:03.261Z,19.06
2023-05-01T08:40:11.078Z,19.27
2023-05-01T08:43:16.109Z,19.74
2023-05-01T08:46:34.967Z,18.74
2023-05-01T08:49:58.245Z,18.67
2023-05-01T08:53:13.104Z,19.36
2023-05-01T08:56:32.193Z,19.27
2023-05-01T08:59:45.374Z,19.12
2023-05-01T09:02:52.391Z,20.34
2023-05-01T09:05:57.392Z,19.33
2023-05-01T09:09:09.186Z,19.57
2023-05-01T09:12:24.030Z,19.56
2023-05-01T09:15:34.937Z,19.54
2023-05-01T09:18:50.241Z,20.13
2023-05-01T09:21:56.623Z,19.10
2023-05-01T09:25:04.941Z,19.74
2023-05-01T09:28:16.111Z,19.99
2023-05-01T09:31:39.998Z,20.67
2023-05-01T09:34:46.172Z,20.08
2023-05-01T09:37:52.533Z,20.76
2023-05-01T09:41:10.836Z,20.40
2023-05-01T09:44:19.543Z,20.14
2023-05-01T09:47:23.094Z,20.51
2023-05-01T09:50:34.989Z,21.07
2023-05-01T09:53:48.095Z,21.16
2023-05-01T09:56:59.943Z,20.60
2023-05-01T10:00:08.724Z,21.55
2023-05-01T10:03:17.750Z,21.59
2023-05-01T10:06:36.006Z,22.29
2023-05-01T10:09:49.041Z,21.51
2023-05-01T10:12:52.216Z,20.89
2023-05-01T10:15:58.218Z,21.90
2023-05-01T10:19:08.954Z,21.41
2023-05-01T10:22:13.351Z,21.18
2023-05-01T10:25:29.968Z,21.47
2023-05-01T10:28:41.995Z,21.70
2023-05-01T10:31:57.057Z,21.18
2023-05-01T10:35:09.345Z,21.97
2023-05-01T10:38:22.044Z,21.82
2023-05-01T10:41:59.317Z,22.19
2023-05-01T10:45:31.392Z,21.49
2023-05-01T10:48:39.030Z,21.43
2023-05-01T10:52:04.252Z,22.30
2023-05-01T10:55:35.158Z,22.06
2023-05-01T10:58:39.386Z,22.11
2023-05-01T11:01:54.340Z,22.55
2023-05-01T11:05:03.974Z,22.54
2023-05-01T11:08:34.036Z,22.27
2023-05-01T11:11:38.183Z,22.92
2023-05-01T11:15:06.469Z,22.08
2023-05-01T11:18:13.524Z,21.33
2023-05-01T11:21:17.649Z,21.29
2023-05-01T11:24:34.354Z,21.72
2023-05-01T11:27:46.057Z,22.48
2023-05-01T11:30:56.219Z,23.34
2023-05-01T11:34:09.328Z,23.40
2023-05-01T11:37:47.904Z,22.68
2023-05-01T11:40:58.193Z,22.99
2023-05-01T11:44:02.462Z,23.65
2023-05-01T11:47:09.128Z,23.42
2023-05-01T11:50:13.448Z,22.83
2023-05-01T11:53:25.836Z,23.05
2023-05-01T11:56:44.188Z,22.80
2023-05-01T11:59:55.024Z,22.47
2023-05-01T12:03:05.067Z,22.96
2023-05-01T12:06:21.926Z,22.71
2023-05-01T12:09:38.207Z,22.65
2023-05-01T12:12:52.064Z,22.72
2023-05-01T12:15:57.530Z,23.04
2023-05-01T12:19:12.261Z,22.84
2023-05-01T12:22:23.998Z,22.90
2023-05-01T12:25:38.893Z,23.02
2023-05-01T12:28:59.356Z,22.84
2023-05-01T12:32:06.218Z,22.13
2023-05-01T12:35:16.993Z,22.81
2023-05-01T12:38:30.027Z,23.07
2023-05-01T12:41:45.169Z,22.93
2023-05-01T12:45:01.107Z,23.15
2023-05-01T12:48:15.139Z,22.54
2023-05-01T12:51:27.830Z,23.31
2023-05-01T12:54:39.958Z,22.46
2023-05-01T12:57:54.632Z,22.38
2023-05-01T13:01:07.939Z,22.81
2023-05-01T13:04:14.495Z,23.16
2023-05-01T13:07:25.119Z,22.56
2023-05-01T13:10:34.068Z,22.66
2023-05-01T13:13:53.493Z,22.73
2023-05-01T13:16:57.166Z,22.87
2023-05-01T13:20:02.898Z,22.29
2023-05-01T13:23:13.936Z,21.91
2023-05-01T13:26:19.026Z,21.93
2023-05-01T13:29:26.013Z,21.94
2023-05-01T13:32:32.009Z,21.82
2023-05-01T13:35:39.542Z,21.67
2023-05-01T13:38:51.969Z,21.91
2023-05-01T13:42:01.373Z,21.78
2023-05-01T13:45:06.653Z,22.36
2023-05-01T13:48:12.100Z,21.97
2023-05-01T13:51:24.200Z,21.90
2023-05-01T13:54:37.652Z,21.78
2023-05-01T13:57:53.943Z,21.69
2023-05-01T14:01:00.412Z,21.58
2023-05-01T14:04:07.015Z,21.77
2023-05-01T14:07:18.424Z,21.83
2023-05-01T14:10:23.322Z,21.87
2023-05-01T14:13:28.073Z,21.80
2023-05-01T14:16:36.392Z,21.66
2023-05-01T14:19:47.802Z,21.87
2023-05-01T14:22:53.593Z,21.82
2023-05-01T14:25:57.128Z,21.56
2023-05-01T14:29:03.784Z,21.70
2023-05-01T14:32:37.157Z,21.79
2023-05-01T14:35:53.984Z,21.77
2023-05-01T14:39:05.966Z,21.64
2023-05-01T14:42:10.593Z,21.66
2023-05-01T14:45:19.934Z,21.51
2023-05-01T14:48:35.471Z,21.45
2023-05-01T14:51:41.487Z,21.45
2023-05-01T14:54:54.254Z,21.46
2023-05-01T14:57:58.091Z,21.49
2023-05-01T15:01:06.073Z,21.51
2023-05-01T15:04:11.987Z,21.46
2023-05-01T15:07:21.003Z,21.49
2023-05-01T15:10:29.562Z,21.24
2023-05-01T15:13:39.450Z,21.21
2023-05-01T15:16:55.034Z,21.10
2023-05-01T15:19:59.487Z,21.08
2023-05-01T15:23:04.490Z,21.07
2023-05-01T15:26:12.048Z,21.14
2023-05-01T15:29:19.605Z,20.98
2023-05-01T15:32:29.482Z,21.15
2023-05-01T15:35:34.404Z,21.02
2023-05-01T15:38:38.357Z,20.94
2023-05-01T15:41:48.943Z,20.94
2023-05-01T15:45:08.944Z,20.98
2023-05-01T15:48:19.959Z,20.82
2023-05-01T15:51:26.092Z,20.88
2023-05-01T15:54:31.196Z,20.85
2023-05-01T15:57:49.251Z,20.58
2023-05-01T16:00:54.534Z,20.55
2023-05-01T16:03:59.193Z,20.55
2023-05-01T16:07:03.420Z,20.37
2023-05-01T16:10:08.908Z,20.29
2023-05-01T16:13:13.643Z,20.17
2023-05-01T16:16:24.081Z,20.07
2023-05-01T16:19:33.016Z,19.98
2023-05-01T16:22:56.992Z,19.92
2023-05-01T16:26:05.992Z,19.82
2023-05-01T16:29:14.970Z,19.78
2023-05-01T16:32:32.090Z,19.73
2023-05-01T16:35:36.832Z,19.62
2023-05-01T16:38:41.397Z,19.56
2023-05-01T16:41:55.096Z,19.51
2023-05-01T16:45:08.811Z,19.33
2023-05-01T16:48:15.054Z,19.30
2023-05-01T16:51:20.196Z,19.29
2023-05-01T16:54:32.976Z,19.22
2023-05-01T16:57:38.582Z,19.16
2023-05-01T17:00:48.257Z,19.05
2023-05-01T17:04:01.974Z,19.03
2023-05-01T17:07:15.235Z,18.82
2023-05-01T17:10:32.925Z,18.63
2023-05-01T17:13:38.335Z,18.52
2023-05-01T17:16:56.243Z,18.44
2023-05-01T17:20:01.705Z,18.32
2023-05-01T17:23:16.932Z,18.27
2023-05-01T17:26:21.663Z,18.15
2023-05-01T17:29:34.513Z,18.08
2023-05-01T17:32:44.178Z,17.96
2023-05-01T17:35:56.806Z,17.86
2023-05-01T17:39:10.889Z,17.74
2023-05-01T17:42:28.328Z,17.66
2023-05-01T17:45:34.153Z,17.53
2023-05-01T17:48:43.059Z,17.43
2023-05-01T17:51:48.565Z,17.38
2023-05-01T17:54:54.159Z,17.27
2023-05-01T17:58:09.377Z,17.21
2023-05-01T18:01:30.334Z,17.11
2023-05-01T18:04:43.177Z,17.01
2023-05-01T18:07:46.529Z,16.92
2023-05-01T18:10:51.999Z,16.90
2023-05-01T18:13:58.151Z,16.80
2023-05-01T18:17:10.098Z,16.72
2023-05-01T18:20:20.321Z,16.62
2023-05-01T18:23:26.735Z,16.57
2023-05-01T18:26:36.012Z,16.47
2023-05-01T18:29:49.946Z,16.37
2023-05-01T18:33:01.241Z,16.33
2023-05-01T18:36:09.945Z,16.31
2023-05-01T18:39:22.004Z,16.24
2023-05-01T18:42:35.007Z,16.11
2023-05-01T18:45:38.975Z,16.05
2023-05-01T18:48:42.775Z,16.04
2023-05-01T18:51:52.032Z,15.98
2023-05-01T18:55:03.923Z,15.89
2023-05-01T18:58:07.838Z,15.84
2023-05-01T19:01:24.470Z,15.79
2023-05-01T19:04:31.006Z,15.73
2023-05-01T19:07:37.269Z,15.63
2023-05-01T19:10:42.823Z,15.60
2023-05-01T19:13:55.023Z,15.57
2023-05-01T19:17:02.650Z,15.47
2023-05-01T19:20:18.935Z,15.39
2023-05-01T19:23:39.063Z,15.33
2023-05-01T19:26:46.019Z,15.25
2023-05-01T19:29:54.977Z,15.20
2023-05-01T19:32:59.065Z,15.11
2023-05-01T19:36:06.981Z,15.06
2023-05-01T19:39:16.069Z,14.98
2023-05-01T19:42:22.043Z,14.95
2023-05-01T19:45:33.118Z,14.90
2023-05-01T19:48:37.413Z,14.84
2023-05-01T19:51:47.220Z,14.79
2023-05-01T19:55:00.118Z,14.73
2023-05-01T19:58:23.273Z,14.70
2023-05-01T20:01:35.036Z,14.65
2023-05-01T20:04:47.024Z,14.59
2023-05-01T20:07:58.502Z,14.56
2023-05-01T20:11:06.022Z,14.42
2023-05-01T20:14:15.233Z,14.46
2023-05-01T20:17:26.981Z,14.41
2023-05-01T20:20:31.017Z,14.37
2023-05-01T20:23:44.038Z,14.19
2023-05-01T20:27:00.315Z,14.18
2023-05-01T20:30:11.277Z,14.08
2023-05-01T20:33:15.271Z,14.01
2023-05-01T20:36:20.616Z,13.91
2023-05-01T20:39:31.332Z,13.82
2023-05-01T20:42:36.010Z,13.74
2023-05-01T20:45:39.751Z,13.63
2023-05-01T20:48:45.020Z,13.61
2023-05-01T20:51:47.952Z,13.54
2023-05-01T20:54:53.114Z,13.47
2023-05-01T20:57:57.001Z,13.39
2023-05-01T21:01:02.330Z,13.32
2023-05-01T21:04:06.782Z,13.25
2023-05-01T21:07:13.247Z,13.17
2023-05-01T21:10:20.037Z,13.08
2023-05-01T21:13:25.053Z,12.99
2023-05-01T21:16:28.938Z,12.93
2023-05-01T21:19:47.054Z,12.91
2023-05-01T21:22:57.920Z,12.86
2023-05-01T21:26:01.577Z,12.79
2023-05-01T21:29:09.812Z,12.75
2023-05-01T21:32:13.529Z,12.67
2023-05-01T21:35:17.945Z,12.62
2023-05-01T21:38:24.110Z,12.56
2023-05-01T21:41:28.168Z,12.57
2023-05-01T21:44:38.711Z,12.55
2023-05-01T21:47:44.467Z,12.50
2023-05-01T21:50:51.967Z,12.44
2023-05-01T21:53:55.807Z,12.42
2023-05-01T21:57:00.973Z,12.38
2023-05-01T22:00:09.117Z,12.35
2023-05-01T22:03:17.362Z,12.30
2023-05-01T22:06:26.130Z,12.35
2023-05-01T22:09:29.720Z,12.30
2023-05-01T22:12:33.103Z,12.32
2023-05-01T22:15:38.086Z,12.30
2023-05-01T22:18:41.205Z,12.27
2023-05-01T22:21:44.558Z,12.23
2023-05-01T22:24:48.561Z,12.22
2023-05-01T22:27:52.058Z,12.17
2023-05-01T22:30:56.468Z,12.13
2023-05-01T22:34:00.301Z,12.16
2023-05-01T22:37:03.175Z,12.15
2023-05-01T22:40:07.472Z,12.13
2023-05-01T22:43:10.533Z,12.11
2023-05-01T22:46:14.314Z,12.08
2023-05-01T22:49:17.888Z,12.06
2023-05-01T22:52:21.318Z,11.96
2023-05-01T22:55:24.155Z,11.93
2023-05-01T22:58:28.577Z,11.94
2023-05-01T23:01:31.702Z,11.91
2023-05-01T23:04:35.953Z,11.82
2023-05-01T23:07:38.651Z,11.77
2023-05-01T23:10:42.687Z,11.74
2023-05-01T23:13:48.087Z,11.72
2023-05-01T23:16:52.374Z,11.64
2023-05-01T23:19:58.564Z,11.63
2023-05-01T23:23:05.287Z,11.63
2023-05-01T23:26:07.779Z,11.61
2023-05-01T23:29:12.556Z,11.62
2023-05-01T23:32:26.301Z,11.61
2023-05-01T23:35:29.582Z,11.60
2023-05-01T23:38:32.319Z,11.63
2023-05-01T23:41:36.046Z,11.63
2023-05-01T23:44:40.343Z,11.64
2023-05-01T23:47:44.169Z,11.64
2023-05-01T23:50:47.080Z,11.68
2023-05-01T23:53:50.260Z,11.71
2023-05-01T23:56:53.787Z,11.75
2023-05-01T23:59:56.767Z,11.77
